Zachary, Louisiana
Current Conditions -  °F | °C
As of 4:53 PM on Friday 31 Oct 2014 (Local Time) from KBTR Reporting Station
Clear Clear  
Wind Chill: 71°   Ceiling: Unl
Heat Index: 71°   Visibility: 10mi
Dew Point: 46°   Wind: 7mph
Humidity: 41%   Direction: 330°NNW
Pressure: 30.07"   Gusts: NA
Location:  30.65°N, 91.16°W
Report Text: KBTR 312153Z 33006KT 10SM CLR 22/08 A3007 RMK AO2 SLP183 T02170078
Loading
Personal Weather Stations






























Interactive Weather Map
Tropical Storm Tracking
New forecast layout! Learn more

10-Day Weather Forecast

Advertisements
Track Severe Weather on mobile